Time;durP1;ratioP1;P1;durP2;ratioP2;P2;SDS_P1;SDS_P2;PMS_P1;PMS_P2;Temp;Humidity;BMP_temperature;BMP_pressure;BME280_temperature;BME280_humidity;BME280_pressure;Samples;Min_cycle;Max_cycle;Signal;HPM_P1;HPM_P2
2021/08/03 00:01:34;;;;;;;5.10;4.40;;;21.20;96.80;;;;;;4247596;27;20122;-75
2021/08/03 00:03:39;;;;;;;6.38;4.45;;;21.20;96.80;;;;;;4265735;27;20059;-76
2021/08/03 00:06:08;;;;;;;5.40;4.38;;;21.20;96.60;;;;;;4265503;27;20059;-78
2021/08/03 00:08:20;;;;;;;5.07;4.45;;;21.20;96.40;;;;;;4247497;27;20414;-78
2021/08/03 00:10:23;;;;;;;6.60;4.32;;;21.30;96.60;;;;;;4265551;27;20630;-79
2021/08/03 00:12:27;;;;;;;5.28;4.43;;;21.20;96.70;;;;;;4265369;27;20055;-78
2021/08/03 00:14:31;;;;;;;5.97;5.05;;;21.20;96.50;;;;;;4265122;27;20050;-78
2021/08/03 00:16:36;;;;;;;5.57;4.40;;;21.20;96.90;;;;;;4246904;27;20403;-78
2021/08/03 00:18:41;;;;;;;4.97;4.40;;;21.20;96.90;;;;;;4265303;27;20403;-78
2021/08/03 00:20:44;;;;;;;8.50;5.60;;;21.20;96.90;;;;;;4246923;27;20051;-78
2021/08/03 00:22:48;;;;;;;7.40;6.15;;;21.20;98.30;;;;;;4265240;27;20062;-78
2021/08/03 00:24:52;;;;;;;8.00;6.38;;;21.00;98.60;;;;;;4265224;27;20055;-76
2021/08/03 00:26:55;;;;;;;8.23;6.30;;;20.90;99.10;;;;;;4265305;27;20406;-75
2021/08/03 00:28:59;;;;;;;10.32;6.75;;;20.80;99.40;;;;;;4265288;27;20542;-79
2021/08/03 00:31:02;;;;;;;7.18;5.88;;;20.80;99.50;;;;;;4264755;27;20065;-78
2021/08/03 00:33:06;;;;;;;7.10;6.28;;;20.80;99.20;;;;;;4265189;27;20054;-78
2021/08/03 00:35:09;;;;;;;8.52;6.55;;;20.80;99.50;;;;;;4265099;27;20055;-78
2021/08/03 00:37:12;;;;;;;6.82;5.85;;;20.80;99.60;;;;;;4265237;27;20069;-77
2021/08/03 00:39:15;;;;;;;8.32;6.47;;;20.80;99.70;;;;;;4264958;27;20055;-79
2021/08/03 00:41:24;;;;;;;7.25;5.25;;;20.60;99.90;;;;;;4265211;27;20417;-78
2021/08/03 00:43:27;;;;;;;7.38;5.85;;;20.60;99.90;;;;;;4264765;27;20058;-78
2021/08/03 00:45:33;;;;;;;6.93;5.63;;;20.70;99.70;;;;;;4246427;27;20043;-79
2021/08/03 00:47:36;;;;;;;8.60;6.18;;;20.80;99.20;;;;;;4264782;27;20054;-76
2021/08/03 00:49:39;;;;;;;6.93;6.00;;;20.80;99.60;;;;;;4263799;27;20047;-75
2021/08/03 00:51:42;;;;;;;9.20;6.93;;;20.90;99.40;;;;;;4264927;27;20517;-76
2021/08/03 00:53:45;;;;;;;7.78;5.78;;;20.90;99.90;;;;;;4264985;27;20050;-79
2021/08/03 00:55:49;;;;;;;6.72;6.13;;;20.90;99.00;;;;;;4264584;27;20051;-75
2021/08/03 00:57:53;;;;;;;8.00;6.03;;;20.90;99.00;;;;;;4246351;27;20266;-76
2021/08/03 00:59:57;;;;;;;6.40;5.80;;;21.00;98.90;;;;;;4264637;27;20062;-75
2021/08/03 01:02:03;;;;;;;7.43;5.10;;;21.00;98.60;;;;;;4264673;27;20401;-75
2021/08/03 01:04:09;;;;;;;5.95;5.35;;;21.00;98.40;;;;;;4264645;27;20055;-79
2021/08/03 01:06:15;;;;;;;8.43;5.93;;;21.10;98.10;;;;;;4264505;27;20055;-78
2021/08/03 01:08:23;;;;;;;8.68;6.32;;;21.10;98.30;;;;;;4264823;27;20042;-79
2021/08/03 01:10:36;;;;;;;8.90;7.63;;;21.10;98.40;;;;;;4264480;27;20051;-77
2021/08/03 01:12:49;;;;;;;9.02;7.15;;;21.10;98.80;;;;;;4264252;27;20517;-78
2021/08/03 01:14:59;;;;;;;8.20;7.30;;;21.10;99.10;;;;;;4264435;27;20057;-78
2021/08/03 01:17:13;;;;;;;8.25;6.97;;;21.10;99.00;;;;;;4264262;27;20487;-78
2021/08/03 01:19:21;;;;;;;9.73;7.30;;;21.10;98.60;;;;;;4264264;27;20054;-78
2021/08/03 01:21:39;;;;;;;10.00;8.20;;;21.20;98.50;;;;;;4264137;27;20057;-78
2021/08/03 01:24:07;;;;;;;11.67;8.40;;;21.20;98.40;;;;;;4264547;27;20046;-78
2021/08/03 01:26:25;;;;;;;10.15;7.63;;;21.20;98.20;;;;;;4264444;27;20417;-77
2021/08/03 01:28:31;;;;;;;9.38;7.75;;;21.20;98.30;;;;;;4263868;27;20062;-78
2021/08/03 01:30:37;;;;;;;14.38;8.50;;;21.20;98.20;;;;;;4263979;27;20530;-77
2021/08/03 01:32:42;;;;;;;7.93;7.10;;;21.20;98.30;;;;;;4264163;27;20401;-79
2021/08/03 01:34:47;;;;;;;11.63;8.15;;;21.20;98.10;;;;;;4264315;27;20053;-77
2021/08/03 01:36:54;;;;;;;11.68;7.90;;;21.20;98.60;;;;;;4264887;27;20401;-79
2021/08/03 01:38:58;;;;;;;11.02;6.63;;;21.30;98.50;;;;;;4264430;27;20047;-78
2021/08/03 01:41:05;;;;;;;6.10;5.47;;;21.30;98.10;;;;;;4264277;27;20043;-78
2021/08/03 01:43:08;;;;;;;6.60;5.60;;;21.30;98.20;;;;;;4245602;27;20054;-79
2021/08/03 01:45:14;;;;;;;7.18;6.35;;;21.30;97.80;;;;;;4264230;27;20046;-78
2021/08/03 01:47:19;;;;;;;6.38;5.78;;;21.30;98.30;;;;;;4263852;27;20422;-78
2021/08/03 01:49:23;;;;;;;8.70;7.47;;;21.30;97.80;;;;;;4264079;27;20051;-77
2021/08/03 01:51:29;;;;;;;7.95;6.00;;;21.30;97.80;;;;;;4263611;27;20062;-78
2021/08/03 01:53:33;;;;;;;11.35;6.88;;;21.30;98.00;;;;;;4263717;27;20050;-78
2021/08/03 01:55:36;;;;;;;8.98;6.55;;;21.30;98.00;;;;;;4263525;27;20419;-77
2021/08/03 01:57:41;;;;;;;8.57;7.10;;;21.30;98.30;;;;;;4263822;27;20524;-78
2021/08/03 01:59:46;;;;;;;8.55;6.60;;;21.20;98.20;;;;;;4263663;27;20414;-77
2021/08/03 02:01:52;;;;;;;8.77;6.85;;;21.20;98.40;;;;;;4245097;27;20406;-78
2021/08/03 02:03:56;;;;;;;8.00;6.68;;;21.20;98.30;;;;;;4263784;27;20064;-77
2021/08/03 02:06:02;;;;;;;8.60;6.90;;;21.20;98.30;;;;;;4263979;27;20077;-77
2021/08/03 02:08:06;;;;;;;9.13;7.25;;;21.20;98.60;;;;;;4263566;27;20077;-78
2021/08/03 02:10:10;;;;;;;10.37;8.00;;;20.90;99.10;;;;;;4263615;27;20061;-77
2021/08/03 02:12:14;;;;;;;9.57;8.25;;;21.00;98.80;;;;;;4263804;27;20115;-79
2021/08/03 02:14:19;;;;;;;8.25;7.40;;;21.00;99.50;;;;;;4263602;27;20399;-77
2021/08/03 02:16:24;;;;;;;9.18;7.72;;;21.00;98.60;;;;;;4263480;27;20055;-78
2021/08/03 02:18:28;;;;;;;7.85;6.82;;;21.00;98.70;;;;;;4263729;27;20175;-77
2021/08/03 02:20:31;;;;;;;15.65;8.18;;;21.10;99.00;;;;;;4263708;27;20096;-77
2021/08/03 02:22:35;;;;;;;10.55;9.18;;;21.10;98.80;;;;;;4263580;27;20076;-78
2021/08/03 02:24:39;;;;;;;11.02;8.80;;;21.00;99.10;;;;;;4263451;27;20055;-77
2021/08/03 02:26:43;;;;;;;11.23;9.88;;;21.00;99.20;;;;;;4245059;27;20058;-78
2021/08/03 02:28:46;;;;;;;11.23;9.65;;;20.90;99.60;;;;;;4263227;27;20050;-77
2021/08/03 02:30:53;;;;;;;11.05;8.88;;;20.90;99.70;;;;;;4263377;27;20556;-77
2021/08/03 02:33:04;;;;;;;11.20;9.80;;;20.80;99.90;;;;;;4262984;27;20513;-78
2021/08/03 02:35:13;;;;;;;11.35;9.05;;;20.80;99.90;;;;;;4263264;27;20055;-77
2021/08/03 02:37:19;;;;;;;12.15;10.88;;;20.80;99.90;;;;;;4263200;27;20080;-77
2021/08/03 02:39:24;;;;;;;10.52;8.93;;;20.70;99.90;;;;;;4263208;27;20051;-77
2021/08/03 02:41:30;;;;;;;13.73;10.48;;;20.70;99.90;;;;;;4263270;27;20055;-77
2021/08/03 02:43:35;;;;;;;14.65;11.75;;;20.70;99.90;;;;;;4263376;27;20058;-77
2021/08/03 02:45:40;;;;;;;;;;;20.70;99.90;;;;;;4263868;27;20055;-76
2021/08/03 02:47:53;;;;;;;14.52;10.93;;;20.60;99.90;;;;;;4263161;27;20396;-77
2021/08/03 02:50:06;;;;;;;18.25;12.80;;;20.70;99.90;;;;;;4263480;27;20049;-78
2021/08/03 02:52:11;;;;;;;14.95;12.27;;;20.60;99.90;;;;;;4262904;27;20406;-78
2021/08/03 02:54:26;;;;;;;15.32;12.38;;;20.70;99.90;;;;;;4263383;27;20042;-76
2021/08/03 02:56:31;;;;;;;15.63;13.07;;;20.70;99.90;;;;;;4263209;27;20046;-78
2021/08/03 02:58:39;;;;;;;16.95;13.52;;;20.70;99.90;;;;;;4262793;27;20477;-76
2021/08/03 03:00:43;;;;;;;13.30;11.90;;;20.70;99.90;;;;;;4263046;27;20051;-78
2021/08/03 03:02:47;;;;;;;14.95;11.85;;;20.70;99.90;;;;;;4263144;27;20051;-78
2021/08/03 03:04:55;;;;;;;16.85;14.05;;;20.80;99.70;;;;;;4263191;27;20053;-77
2021/08/03 03:07:05;;;;;;;19.83;15.48;;;20.80;99.90;;;;;;4263077;27;20053;-78
2021/08/03 03:09:10;;;;;;;17.15;13.70;;;20.80;99.90;;;;;;4262938;27;20047;-77
2021/08/03 03:11:14;;;;;;;17.15;14.85;;;20.80;99.90;;;;;;4263524;27;20038;-77
2021/08/03 03:13:22;;;;;;;16.42;14.13;;;20.70;99.90;;;;;;4264739;27;20046;-77
2021/08/03 03:15:28;;;;;;;13.75;12.35;;;20.70;99.90;;;;;;4266481;27;20058;-78
2021/08/03 03:17:35;;;;;;;18.30;14.90;;;20.80;99.90;;;;;;4248353;27;20051;-76
2021/08/03 03:19:40;;;;;;;18.60;15.07;;;20.80;99.90;;;;;;4267447;27;20053;-75
2021/08/03 03:21:45;;;;;;;16.25;13.13;;;20.80;99.90;;;;;;4266938;27;20421;-76
2021/08/03 03:23:49;;;;;;;17.73;14.98;;;20.80;99.90;;;;;;4266713;27;20051;-74
2021/08/03 03:25:54;;;;;;;18.95;14.05;;;20.80;99.80;;;;;;4266454;27;20055;-75
2021/08/03 03:27:58;;;;;;;;;;;20.80;99.90;;;;;;4266987;27;20401;-75
2021/08/03 03:30:02;;;;;;;22.20;16.58;;;20.70;99.90;;;;;;4266351;27;19925;-75
2021/08/03 03:32:06;;;;;;;26.15;20.00;;;20.50;99.90;;;;;;4266125;27;20054;-75
2021/08/03 03:34:11;;;;;;;18.90;16.48;;;20.50;99.90;;;;;;4265859;27;20051;-75
2021/08/03 03:36:14;;;;;;;15.55;13.68;;;20.50;99.90;;;;;;4266162;27;20055;-75
2021/08/03 03:38:19;;;;;;;18.08;14.68;;;20.60;99.90;;;;;;4266068;27;20057;-75
2021/08/03 03:40:24;;;;;;;16.50;14.55;;;20.60;99.90;;;;;;4266131;27;20050;-74
2021/08/03 03:42:32;;;;;;;16.85;14.40;;;20.60;99.90;;;;;;4266096;27;20061;-74
2021/08/03 03:44:35;;;;;;;12.40;10.70;;;20.60;99.90;;;;;;4266077;27;20427;-78
2021/08/03 03:46:43;;;;;;;15.13;12.73;;;20.60;99.90;;;;;;4247684;27;20051;-75
2021/08/03 03:48:51;;;;;;;13.07;11.32;;;20.60;99.90;;;;;;4247505;27;20047;-75
2021/08/03 03:51:00;;;;;;;10.85;9.65;;;20.60;99.90;;;;;;4265974;27;20061;-75
2021/08/03 03:53:07;;;;;;;10.18;9.10;;;20.70;99.90;;;;;;4265751;27;20063;-77
2021/08/03 03:55:14;;;;;;;12.38;11.07;;;20.70;99.90;;;;;;4265651;27;20527;-75
2021/08/03 03:57:19;;;;;;;14.32;9.68;;;20.70;99.90;;;;;;4265419;27;20054;-75
2021/08/03 03:59:23;;;;;;;;;;;20.70;99.90;;;;;;4266424;27;20055;-75
2021/08/03 04:01:28;;;;;;;12.45;9.15;;;20.70;99.90;;;;;;4265809;27;19925;-75
2021/08/03 04:03:36;;;;;;;10.98;8.80;;;20.60;99.90;;;;;;4265459;27;20065;-75
2021/08/03 04:05:41;;;;;;;11.55;9.55;;;20.60;99.90;;;;;;4266281;27;20060;-76
2021/08/03 04:07:49;;;;;;;9.82;8.10;;;20.60;99.90;;;;;;4266343;27;20636;-77
2021/08/03 04:10:01;;;;;;;11.38;8.52;;;20.60;99.90;;;;;;4265564;27;20047;-77
2021/08/03 04:12:04;;;;;;;8.75;7.85;;;20.60;99.90;;;;;;4265541;27;20415;-77
2021/08/03 04:14:07;;;;;;;8.38;7.50;;;20.60;99.60;;;;;;4265133;27;20498;-75
2021/08/03 04:16:12;;;;;;;9.45;8.07;;;20.60;99.90;;;;;;4265327;27;20061;-75
2021/08/03 04:18:15;;;;;;;12.15;8.93;;;20.60;99.90;;;;;;4265708;27;20055;-75
2021/08/03 04:20:18;;;;;;;9.05;7.78;;;20.60;99.70;;;;;;4265172;27;20063;-74
2021/08/03 04:22:23;;;;;;;9.55;7.35;;;20.60;99.70;;;;;;4265468;27;20068;-78
2021/08/03 04:24:26;;;;;;;8.65;7.47;;;20.50;99.90;;;;;;4264965;27;20051;-75
2021/08/03 04:26:30;;;;;;;9.27;7.30;;;20.60;99.80;;;;;;4265423;27;20418;-76
2021/08/03 04:28:33;;;;;;;7.93;7.13;;;20.60;99.90;;;;;;4265108;27;20087;-78
2021/08/03 04:30:36;;;;;;;7.05;6.32;;;20.60;99.60;;;;;;4265047;27;20059;-75
2021/08/03 04:32:41;;;;;;;8.52;6.53;;;20.60;99.50;;;;;;4264922;27;20077;-75
2021/08/03 04:34:45;;;;;;;5.00;4.00;;;20.60;99.90;;;;;;4265191;27;20058;-75
2021/08/03 04:36:48;;;;;;;3.17;2.88;;;20.50;99.40;;;;;;4264821;27;20050;-77
2021/08/03 04:38:51;;;;;;;3.92;3.53;;;20.60;99.20;;;;;;4265025;27;20441;-77
2021/08/03 04:40:54;;;;;;;5.10;3.25;;;20.50;99.20;;;;;;4264993;27;20403;-77
2021/08/03 04:42:57;;;;;;;4.32;3.50;;;20.40;99.10;;;;;;4264934;27;20081;-77
2021/08/03 04:45:00;;;;;;;4.32;3.28;;;20.40;99.10;;;;;;4265076;27;20497;-77
2021/08/03 04:47:03;;;;;;;6.63;3.50;;;20.40;98.80;;;;;;4264820;27;20069;-75
2021/08/03 04:49:07;;;;;;;10.60;3.53;;;20.40;99.10;;;;;;4264730;27;20054;-75
2021/08/03 04:51:10;;;;;;;4.72;3.35;;;20.40;98.90;;;;;;4264768;27;20051;-75
2021/08/03 04:53:13;;;;;;;4.22;3.63;;;20.40;98.80;;;;;;4264622;27;20065;-75
2021/08/03 04:55:17;;;;;;;4.78;3.22;;;20.40;99.20;;;;;;4246360;27;20058;-77
2021/08/03 04:57:20;;;;;;;3.50;2.60;;;20.30;99.40;;;;;;4264764;27;20065;-75
2021/08/03 04:59:23;;;;;;;4.07;2.38;;;20.20;98.70;;;;;;4264588;27;20050;-74
2021/08/03 05:01:26;;;;;;;5.72;2.30;;;20.20;98.50;;;;;;4264569;27;20055;-75
2021/08/03 05:03:29;;;;;;;3.40;2.30;;;20.00;99.00;;;;;;4264862;27;20061;-77
2021/08/03 05:05:33;;;;;;;4.18;2.78;;;19.80;99.50;;;;;;4264914;27;20513;-75
2021/08/03 05:07:37;;;;;;;3.53;2.70;;;19.70;99.90;;;;;;4264838;27;20518;-75
2021/08/03 05:09:40;;;;;;;2.75;2.42;;;19.70;99.90;;;;;;4264595;27;20062;-75
2021/08/03 05:11:43;;;;;;;5.78;3.30;;;19.60;99.90;;;;;;4264367;27;20540;-75
2021/08/03 05:13:46;;;;;;;4.25;2.58;;;19.40;99.90;;;;;;4263998;27;20421;-76
2021/08/03 05:15:49;;;;;;;4.45;2.80;;;19.30;99.90;;;;;;4264679;27;20051;-75
2021/08/03 05:17:52;;;;;;;5.32;3.28;;;19.50;99.90;;;;;;4264617;27;20413;-74
2021/08/03 05:19:55;;;;;;;3.20;2.90;;;19.60;99.90;;;;;;4264185;27;20046;-75
2021/08/03 05:22:00;;;;;;;3.58;2.90;;;19.70;99.90;;;;;;4264364;27;20050;-76
2021/08/03 05:24:04;;;;;;;3.70;2.53;;;19.70;99.90;;;;;;4264266;27;20433;-75
2021/08/03 05:26:07;;;;;;;3.42;2.35;;;19.60;99.90;;;;;;4264465;27;20051;-78
2021/08/03 05:28:11;;;;;;;3.80;2.55;;;19.70;99.90;;;;;;4264235;27;20051;-79
2021/08/03 05:30:14;;;;;;;3.90;2.92;;;19.80;99.80;;;;;;4264169;27;20073;-78
2021/08/03 05:32:17;;;;;;;6.43;2.40;;;19.80;99.90;;;;;;4263998;27;20054;-75
2021/08/03 05:34:20;;;;;;;5.18;2.80;;;19.80;99.50;;;;;;4263845;27;20059;-76
2021/08/03 05:36:23;;;;;;;4.70;2.80;;;19.80;99.50;;;;;;4263354;27;20057;-75
2021/08/03 05:38:27;;;;;;;6.03;3.00;;;19.90;99.40;;;;;;4245916;27;20059;-75
2021/08/03 05:40:30;;;;;;;6.78;3.15;;;19.90;99.60;;;;;;4245870;27;20057;-75
2021/08/03 05:42:33;;;;;;;5.35;3.35;;;19.90;99.90;;;;;;4264302;27;20054;-76
2021/08/03 05:44:36;;;;;;;7.13;3.80;;;19.70;99.90;;;;;;4263870;27;20050;-76
2021/08/03 05:46:39;;;;;;;5.10;3.30;;;19.60;99.90;;;;;;4263866;27;20054;-76
2021/08/03 05:48:42;;;;;;;5.40;3.00;;;19.60;99.90;;;;;;4264011;27;20050;-75
2021/08/03 05:50:45;;;;;;;9.05;4.38;;;19.70;99.90;;;;;;4263840;27;20043;-75
2021/08/03 05:52:48;;;;;;;5.57;3.30;;;19.70;99.90;;;;;;4263417;27;20047;-78
2021/08/03 05:54:52;;;;;;;9.20;3.75;;;19.70;99.90;;;;;;4263496;27;20050;-75
2021/08/03 05:56:55;;;;;;;5.72;2.42;;;19.70;99.90;;;;;;4263748;27;20046;-75
2021/08/03 05:58:58;;;;;;;3.90;2.65;;;19.70;99.90;;;;;;4263778;27;20401;-77
2021/08/03 06:01:01;;;;;;;3.53;2.80;;;19.70;99.90;;;;;;4263743;27;20047;-76
2021/08/03 06:03:05;;;;;;;3.85;2.60;;;19.70;99.90;;;;;;4245222;27;20065;-76
2021/08/03 06:05:09;;;;;;;3.13;2.58;;;19.60;99.90;;;;;;4263414;27;20053;-78
2021/08/03 06:07:14;;;;;;;3.63;3.13;;;19.70;99.90;;;;;;4263669;27;20414;-78
2021/08/03 06:09:19;;;;;;;12.07;2.83;;;19.70;99.90;;;;;;4263620;27;20055;-76
2021/08/03 06:11:25;;;;;;;2.60;2.40;;;19.60;99.90;;;;;;4263281;27;20050;-77
2021/08/03 06:13:30;;;;;;;3.75;2.80;;;19.60;99.90;;;;;;4263124;27;20053;-76
2021/08/03 06:15:38;;;;;;;4.82;2.70;;;19.50;99.90;;;;;;4245323;27;20065;-76
2021/08/03 06:17:45;;;;;;;2.92;2.15;;;19.40;99.90;;;;;;4263506;27;20050;-77
2021/08/03 06:19:49;;;;;;;8.00;2.53;;;19.60;99.90;;;;;;4263537;27;20050;-77
2021/08/03 06:21:56;;;;;;;2.40;2.20;;;19.50;99.90;;;;;;4263215;27;20065;-77
2021/08/03 06:23:59;;;;;;;4.20;2.45;;;19.60;99.90;;;;;;4263488;27;20062;-76
2021/08/03 06:26:03;;;;;;;5.32;2.33;;;19.70;99.90;;;;;;4262992;27;20632;-76
2021/08/03 06:28:07;;;;;;;2.92;2.05;;;19.60;99.90;;;;;;4263555;27;20058;-76
2021/08/03 06:30:12;;;;;;;2.08;1.60;;;19.70;99.90;;;;;;4263170;27;20061;-76
2021/08/03 06:32:15;;;;;;;4.03;2.30;;;19.80;99.90;;;;;;4263226;27;20414;-77
2021/08/03 06:34:18;;;;;;;5.82;2.13;;;19.90;99.90;;;;;;4263047;27;20069;-76
2021/08/03 06:36:21;;;;;;;13.48;2.45;;;20.00;99.90;;;;;;4263158;27;20057;-76
2021/08/03 06:38:24;;;;;;;3.03;2.13;;;20.00;99.90;;;;;;4263129;27;20062;-76
2021/08/03 06:40:29;;;;;;;2.78;2.00;;;20.10;99.90;;;;;;4262979;27;20054;-77
2021/08/03 06:42:39;;;;;;;2.80;1.77;;;20.20;99.90;;;;;;4263176;27;20054;-77
2021/08/03 06:44:50;;;;;;;4.32;1.80;;;20.00;99.90;;;;;;4244816;27;20067;-77
2021/08/03 06:46:58;;;;;;;2.70;1.88;;;19.90;99.90;;;;;;4262152;27;20055;-77
2021/08/03 06:49:02;;;;;;;4.82;2.20;;;19.90;99.90;;;;;;4262796;27;20078;-76
2021/08/03 06:51:11;;;;;;;2.40;2.00;;;19.80;99.90;;;;;;4262838;27;20055;-77
2021/08/03 06:53:15;;;;;;;3.47;2.30;;;19.90;99.90;;;;;;4262839;27;20055;-76
2021/08/03 06:55:27;;;;;;;4.32;2.40;;;19.90;99.90;;;;;;4263405;27;20050;-77
2021/08/03 06:57:33;;;;;;;2.45;2.05;;;20.00;99.90;;;;;;4263064;27;20086;-76
2021/08/03 06:59:44;;;;;;;5.18;2.33;;;19.90;99.90;;;;;;4263090;27;20537;-77
2021/08/03 07:01:52;;;;;;;6.90;2.08;;;19.80;99.90;;;;;;4262952;27;20054;-76
2021/08/03 07:04:01;;;;;;;3.80;2.00;;;19.80;99.90;;;;;;4262931;27;20211;-76
2021/08/03 07:06:07;;;;;;;2.72;2.08;;;19.90;99.90;;;;;;4263179;27;20491;-77
2021/08/03 07:08:12;;;;;;;3.30;2.30;;;19.90;99.90;;;;;;4263154;27;20043;-77
2021/08/03 07:10:15;;;;;;;2.80;2.20;;;20.00;99.90;;;;;;4262958;27;20433;-77
2021/08/03 07:12:18;;;;;;;3.40;2.05;;;20.10;99.90;;;;;;4262784;27;20088;-76
2021/08/03 07:14:26;;;;;;;5.40;2.35;;;20.20;99.90;;;;;;4262376;27;20066;-76
2021/08/03 07:16:30;;;;;;;7.45;2.45;;;20.20;99.90;;;;;;4262770;27;20043;-77
2021/08/03 07:18:35;;;;;;;3.03;2.28;;;20.20;99.80;;;;;;4263006;27;20055;-77
2021/08/03 07:20:41;;;;;;;4.05;2.50;;;20.00;99.80;;;;;;4263040;27;20054;-78
2021/08/03 07:22:46;;;;;;;6.47;2.53;;;20.00;99.90;;;;;;4262631;27;20069;-77
2021/08/03 07:24:49;;;;;;;5.32;2.90;;;20.20;99.90;;;;;;4262853;27;20054;-77
2021/08/03 07:26:52;;;;;;;6.75;2.63;;;20.10;99.90;;;;;;4262868;27;20057;-76
2021/08/03 07:28:55;;;;;;;3.03;2.63;;;20.00;99.90;;;;;;4262869;27;20147;-77
2021/08/03 07:30:58;;;;;;;2.50;2.30;;;19.70;99.90;;;;;;4262426;27;20050;-77
2021/08/03 07:33:03;;;;;;;3.28;2.42;;;20.00;99.90;;;;;;4262594;27;20051;-77
2021/08/03 07:35:09;;;;;;;5.28;2.50;;;20.00;99.90;;;;;;4262940;27;20054;-76
2021/08/03 07:37:12;;;;;;;2.83;2.03;;;20.10;99.90;;;;;;4244331;27;20062;-77
2021/08/03 07:39:15;;;;;;;3.17;2.17;;;20.30;99.90;;;;;;4262645;27;20065;-77
2021/08/03 07:41:18;;;;;;;3.67;2.30;;;20.60;99.90;;;;;;4262467;27;20047;-76
2021/08/03 07:43:21;;;;;;;2.45;2.10;;;20.70;99.00;;;;;;4244132;27;20052;-77
2021/08/03 07:45:24;;;;;;;4.70;1.98;;;20.80;99.60;;;;;;4262602;27;20054;-78
2021/08/03 07:47:28;;;;;;;3.92;2.30;;;20.90;98.90;;;;;;4262869;27;20055;-77
2021/08/03 07:49:31;;;;;;;4.40;2.10;;;20.90;98.50;;;;;;4262782;27;20055;-77
2021/08/03 07:51:35;;;;;;;4.85;2.20;;;21.00;99.10;;;;;;4262638;27;20047;-77
2021/08/03 07:53:38;;;;;;;3.33;2.47;;;21.10;98.10;;;;;;4262758;27;20047;-77
2021/08/03 07:55:41;;;;;;;6.15;2.50;;;21.10;97.00;;;;;;4262615;27;20062;-77
2021/08/03 07:57:44;;;;;;;5.97;2.75;;;21.00;97.70;;;;;;4262025;27;20051;-76
2021/08/03 07:59:47;;;;;;;2.88;2.15;;;21.00;97.90;;;;;;4264833;27;20050;-77
2021/08/03 08:01:50;;;;;;;4.93;1.80;;;21.20;98.00;;;;;;4265535;27;20053;-77
2021/08/03 08:03:53;;;;;;;5.15;2.08;;;21.30;97.70;;;;;;4265710;27;20433;-77
2021/08/03 08:05:56;;;;;;;6.25;2.42;;;21.40;97.20;;;;;;4265545;27;20055;-77
2021/08/03 08:08:02;;;;;;;3.33;2.78;;;21.20;97.70;;;;;;4265739;27;20045;-76
2021/08/03 08:10:05;;;;;;;5.15;2.03;;;21.30;97.10;;;;;;4265761;27;20055;-77
2021/08/03 08:12:08;;;;;;;3.05;2.10;;;21.40;97.20;;;;;;4265370;27;20062;-76
2021/08/03 08:14:12;;;;;;;4.07;2.50;;;21.50;97.00;;;;;;4265242;27;20057;-77
2021/08/03 08:16:15;;;;;;;5.85;2.17;;;21.50;96.70;;;;;;4265690;27;20398;-77
2021/08/03 08:18:18;;;;;;;4.70;2.08;;;21.50;96.40;;;;;;4265339;27;20122;-77
2021/08/03 08:20:21;;;;;;;3.75;2.10;;;21.60;96.00;;;;;;4265357;27;20051;-77
2021/08/03 08:22:24;;;;;;;3.42;2.00;;;21.50;95.10;;;;;;4265217;27;20067;-77
2021/08/03 08:24:29;;;;;;;3.45;2.17;;;21.50;95.40;;;;;;4247325;27;20051;-77
2021/08/03 08:26:32;;;;;;;7.18;2.35;;;21.70;95.60;;;;;;4265254;27;20061;-77
2021/08/03 08:28:35;;;;;;;6.10;2.28;;;21.50;94.90;;;;;;4265613;27;20045;-76
2021/08/03 08:30:39;;;;;;;10.00;2.17;;;21.70;95.20;;;;;;4265332;27;20402;-77
2021/08/03 08:32:43;;;;;;;6.07;2.90;;;21.80;95.60;;;;;;4265331;27;20050;-77
2021/08/03 08:35:07;;;;;;;4.78;1.92;;;22.00;95.80;;;;;;4265341;27;20055;-77
2021/08/03 08:37:10;;;;;;;2.08;1.70;;;21.80;94.90;;;;;;4265078;27;20055;-77
2021/08/03 08:39:13;;;;;;;3.15;2.00;;;21.50;94.40;;;;;;4246643;27;20062;-77
2021/08/03 08:41:18;;;;;;;2.88;1.80;;;21.50;94.50;;;;;;4265405;27;20053;-77
2021/08/03 08:43:21;;;;;;;2.28;1.73;;;21.50;93.60;;;;;;4265122;27;20042;-77
2021/08/03 08:45:24;;;;;;;3.65;1.95;;;21.60;93.40;;;;;;4265203;27;20058;-75
2021/08/03 08:47:27;;;;;;;17.38;2.70;;;21.60;93.10;;;;;;4265040;27;20055;-77
2021/08/03 08:49:31;;;;;;;3.55;2.08;;;21.80;94.30;;;;;;4265232;27;20049;-75
2021/08/03 08:51:34;;;;;;;6.38;2.42;;;22.00;94.20;;;;;;4264870;27;20050;-76
2021/08/03 08:53:38;;;;;;;5.82;2.40;;;21.90;94.40;;;;;;4264243;27;20043;-77
2021/08/03 08:55:41;;;;;;;7.75;2.00;;;22.00;93.70;;;;;;4266864;27;20054;-76
2021/08/03 08:57:50;;;;;;;6.20;2.35;;;22.10;93.60;;;;;;4229675;27;20063;-79
2021/08/03 08:59:54;;;;;;;3.05;1.90;;;22.20;94.40;;;;;;4254506;27;20061;-76
2021/08/03 09:01:59;;;;;;;1.92;1.80;;;22.20;93.50;;;;;;4267105;27;20053;-76
2021/08/03 09:04:05;;;;;;;5.85;1.80;;;22.30;93.40;;;;;;4267772;27;20053;-78
2021/08/03 09:06:10;;;;;;;6.20;2.03;;;22.30;92.40;;;;;;4264643;27;20054;-76
2021/08/03 09:08:13;;;;;;;5.68;2.00;;;22.20;92.50;;;;;;4262250;27;20393;-76
2021/08/03 09:10:37;;;;;;;4.93;2.20;;;22.10;93.00;;;;;;4263937;27;20532;-76
2021/08/03 09:12:40;;;;;;;8.15;2.30;;;22.20;93.20;;;;;;4263543;27;20055;-75
2021/08/03 09:14:45;;;;;;;9.00;2.10;;;22.40;94.20;;;;;;4264865;27;20042;-76
2021/08/03 09:16:49;;;;;;;2.83;1.73;;;22.50;93.70;;;;;;4265345;27;20035;-77
2021/08/03 09:18:55;;;;;;;4.33;2.20;;;22.60;93.50;;;;;;4262301;27;20558;-79
2021/08/03 09:20:58;;;;;;;3.67;1.98;;;22.70;93.10;;;;;;4265735;27;20506;-78
2021/08/03 09:23:01;;;;;;;3.45;2.28;;;22.70;92.80;;;;;;4268256;27;20046;-77
2021/08/03 09:25:12;;;;;;;4.78;1.92;;;22.80;92.00;;;;;;4266989;27;20042;-78
2021/08/03 09:27:37;;;;;;;5.15;1.85;;;22.90;92.60;;;;;;4265524;27;20049;-78
2021/08/03 09:29:43;;;;;;;8.18;2.38;;;23.10;91.80;;;;;;4273195;27;20117;-76
2021/08/03 09:31:52;;;;;;;3.17;1.58;;;23.10;91.60;;;;;;4246166;27;20051;-77
2021/08/03 09:33:56;;;;;;;1.73;1.63;;;23.20;91.20;;;;;;4260668;27;20058;-79
2021/08/03 09:35:59;;;;;;;3.55;1.70;;;23.20;90.60;;;;;;4267664;27;20058;-78
2021/08/03 09:38:13;;;;;;;7.40;1.80;;;23.20;91.10;;;;;;4264830;27;20053;-81
2021/08/03 09:40:21;;;;;;;5.10;2.30;;;23.20;91.60;;;;;;4248027;27;20047;-79
2021/08/03 09:42:27;;;;;;;6.72;2.15;;;23.30;91.10;;;;;;4255696;27;20047;-80
2021/08/03 09:44:30;;;;;;;5.57;2.00;;;23.40;91.00;;;;;;4265327;27;20050;-78
2021/08/03 09:46:33;;;;;;;4.07;2.17;;;23.50;91.20;;;;;;4264875;27;20054;-81
2021/08/03 09:48:46;;;;;;;7.55;2.22;;;23.40;91.70;;;;;;4265139;27;20050;-79
2021/08/03 09:50:55;;;;;;;6.88;2.45;;;23.50;90.90;;;;;;4263725;27;20051;-79
2021/08/03 09:52:58;;;;;;;3.20;2.38;;;23.40;91.40;;;;;;4264561;27;20406;-78
2021/08/03 09:55:09;;;;;;;5.82;2.78;;;23.30;91.20;;;;;;4264738;27;20049;-77
2021/08/03 09:57:21;;;;;;;6.13;2.92;;;23.30;91.00;;;;;;4246556;27;20057;-80
2021/08/03 09:59:33;;;;;;;9.25;2.97;;;23.30;91.40;;;;;;4264032;27;20049;-76
2021/08/03 10:01:41;;;;;;;6.45;3.25;;;23.40;91.20;;;;;;4258768;27;20038;-77
2021/08/03 10:03:47;;;;;;;3.78;2.67;;;23.40;91.10;;;;;;4245613;27;20056;-76
2021/08/03 10:05:51;;;;;;;5.53;3.00;;;23.50;92.00;;;;;;4264222;27;20058;-76
2021/08/03 10:07:55;;;;;;;6.97;2.80;;;23.40;91.90;;;;;;4245495;27;20051;-75
2021/08/03 10:09:58;;;;;;;6.68;2.85;;;23.50;91.50;;;;;;4263476;27;20047;-75
2021/08/03 10:12:01;;;;;;;6.65;2.65;;;23.50;91.50;;;;;;4263962;27;20479;-77
2021/08/03 10:14:05;;;;;;;8.18;3.03;;;23.40;91.60;;;;;;4265463;27;20046;-78
2021/08/03 10:16:08;;;;;;;6.05;2.80;;;23.50;91.50;;;;;;4249741;27;20065;-76
2021/08/03 10:18:11;;;;;;;5.95;2.60;;;23.50;91.20;;;;;;4267012;27;20047;-73
2021/08/03 10:20:16;;;;;;;3.45;2.38;;;23.60;91.20;;;;;;4267651;27;20479;-77
2021/08/03 10:22:25;;;;;;;3.60;2.40;;;23.80;90.60;;;;;;4259570;27;20055;-77
2021/08/03 10:24:31;;;;;;;6.20;2.60;;;23.80;90.60;;;;;;4239816;27;20509;-75
2021/08/03 10:26:34;;;;;;;4.65;2.40;;;23.80;90.60;;;;;;4263441;27;20403;-75
2021/08/03 10:28:37;;;;;;;22.88;3.72;;;23.90;90.40;;;;;;4263880;27;20483;-74
2021/08/03 10:30:40;;;;;;;5.55;2.70;;;23.90;90.40;;;;;;4247239;27;20077;-75
2021/08/03 10:32:49;;;;;;;10.15;3.10;;;23.90;90.00;;;;;;4247287;27;20059;-75
2021/08/03 10:35:01;;;;;;;4.63;2.97;;;23.80;89.80;;;;;;4264121;27;20047;-75
2021/08/03 10:37:07;;;;;;;4.28;2.67;;;23.80;90.00;;;;;;4262877;27;20047;-77
2021/08/03 10:39:15;;;;;;;4.40;2.60;;;23.90;90.60;;;;;;4260567;27;20055;-77
2021/08/03 10:41:18;;;;;;;5.03;2.60;;;24.10;90.60;;;;;;4271327;27;20045;-80
2021/08/03 10:43:23;;;;;;;4.60;2.58;;;24.20;89.00;;;;;;4245972;27;20703;-76
2021/08/03 10:45:27;;;;;;;2.95;2.08;;;24.20;89.30;;;;;;4266624;27;20074;-77
2021/08/03 10:47:46;;;;;;;3.25;2.20;;;24.40;89.10;;;;;;4263480;27;20058;-76
2021/08/03 10:49:54;;;;;;;4.85;2.63;;;24.30;85.60;;;;;;4246265;27;20476;-74
2021/08/03 10:51:57;;;;;;;3.88;1.92;;;23.70;84.70;;;;;;4246265;27;20062;-78